sensor_id;sensor_type;location;lat;lon;timestamp;P1;P2;P0
69224;PMS1003;56333;51.306;17.056;2023-03-16T00:01:04;11.70;5.10;
69224;PMS1003;56333;51.306;17.056;2023-03-16T00:02:29;8.80;4.50;
69224;PMS1003;56333;51.306;17.056;2023-03-16T00:03:54;9.10;4.80;
69224;PMS1003;56333;51.306;17.056;2023-03-16T00:05:19;11.40;5.30;
69224;PMS1003;56333;51.306;17.056;2023-03-16T00:06:43;11.30;5.30;
69224;PMS1003;56333;51.306;17.056;2023-03-16T00:08:07;11.50;5.10;
69224;PMS1003;56333;51.306;17.056;2023-03-16T00:09:32;10.70;5.20;
69224;PMS1003;56333;51.306;17.056;2023-03-16T00:10:58;9.90;5.30;
69224;PMS1003;56333;51.306;17.056;2023-03-16T00:12:24;13.50;5.70;
69224;PMS1003;56333;51.306;17.056;2023-03-16T00:13:48;14.70;5.70;
69224;PMS1003;56333;51.306;17.056;2023-03-16T00:15:13;12.40;5.10;
69224;PMS1003;56333;51.306;17.056;2023-03-16T00:16:38;9.80;4.90;
69224;PMS1003;56333;51.306;17.056;2023-03-16T00:18:03;12.50;5.50;
69224;PMS1003;56333;51.306;17.056;2023-03-16T00:19:28;11.80;5.10;
69224;PMS1003;56333;51.306;17.056;2023-03-16T00:20:59;12.80;5.00;
69224;PMS1003;56333;51.306;17.056;2023-03-16T00:22:26;12.10;5.40;
69224;PMS1003;56333;51.306;17.056;2023-03-16T00:23:52;10.10;5.20;
69224;PMS1003;56333;51.306;17.056;2023-03-16T00:25:17;12.80;5.60;
69224;PMS1003;56333;51.306;17.056;2023-03-16T00:26:41;12.00;5.60;
69224;PMS1003;56333;51.306;17.056;2023-03-16T00:28:06;12.20;5.70;
69224;PMS1003;56333;51.306;17.056;2023-03-16T00:29:30;13.50;6.10;
69224;PMS1003;56333;51.306;17.056;2023-03-16T00:30:56;11.60;5.70;
69224;PMS1003;56333;51.306;17.056;2023-03-16T00:32:23;12.50;5.50;
69224;PMS1003;56333;51.306;17.056;2023-03-16T00:33:48;12.30;5.60;
69224;PMS1003;56333;51.306;17.056;2023-03-16T00:35:13;11.20;5.80;
69224;PMS1003;56333;51.306;17.056;2023-03-16T00:36:39;11.50;5.50;
69224;PMS1003;56333;51.306;17.056;2023-03-16T00:38:04;11.70;5.30;
69224;PMS1003;56333;51.306;17.056;2023-03-16T00:39:28;12.20;5.70;
69224;PMS1003;56333;51.306;17.056;2023-03-16T00:40:57;9.70;4.90;
69224;PMS1003;56333;51.306;17.056;2023-03-16T00:42:23;9.90;5.10;
69224;PMS1003;56333;51.306;17.056;2023-03-16T00:43:49;14.40;5.60;
69224;PMS1003;56333;51.306;17.056;2023-03-16T00:45:16;11.90;5.30;
69224;PMS1003;56333;51.306;17.056;2023-03-16T00:46:40;11.30;4.70;
69224;PMS1003;56333;51.306;17.056;2023-03-16T00:48:05;12.10;5.00;
69224;PMS1003;56333;51.306;17.056;2023-03-16T00:49:30;10.40;5.30;
69224;PMS1003;56333;51.306;17.056;2023-03-16T00:50:57;11.30;5.30;
69224;PMS1003;56333;51.306;17.056;2023-03-16T00:52:21;11.60;5.60;
69224;PMS1003;56333;51.306;17.056;2023-03-16T00:53:46;12.20;5.10;
69224;PMS1003;56333;51.306;17.056;2023-03-16T00:55:11;14.30;5.80;
69224;PMS1003;56333;51.306;17.056;2023-03-16T00:56:35;11.40;5.60;
69224;PMS1003;56333;51.306;17.056;2023-03-16T00:58:01;12.60;5.50;
69224;PMS1003;56333;51.306;17.056;2023-03-16T00:59:27;12.40;5.60;
69224;PMS1003;56333;51.306;17.056;2023-03-16T01:00:52;11.70;5.20;
69224;PMS1003;56333;51.306;17.056;2023-03-16T01:02:19;10.90;5.40;
69224;PMS1003;56333;51.306;17.056;2023-03-16T01:03:46;9.60;4.90;
69224;PMS1003;56333;51.306;17.056;2023-03-16T01:05:11;11.40;5.00;
69224;PMS1003;56333;51.306;17.056;2023-03-16T01:06:36;12.40;5.20;
69224;PMS1003;56333;51.306;17.056;2023-03-16T01:08:01;11.40;4.90;
69224;PMS1003;56333;51.306;17.056;2023-03-16T01:09:26;11.30;5.10;
69224;PMS1003;56333;51.306;17.056;2023-03-16T01:10:51;12.40;4.60;
69224;PMS1003;56333;51.306;17.056;2023-03-16T01:12:18;12.50;4.50;
69224;PMS1003;56333;51.306;17.056;2023-03-16T01:13:43;11.50;4.10;
69224;PMS1003;56333;51.306;17.056;2023-03-16T01:15:11;10.40;4.10;
69224;PMS1003;56333;51.306;17.056;2023-03-16T01:16:35;9.70;4.30;
69224;PMS1003;56333;51.306;17.056;2023-03-16T01:18:00;11.20;4.20;
69224;PMS1003;56333;51.306;17.056;2023-03-16T01:19:25;10.80;5.10;
69224;PMS1003;56333;51.306;17.056;2023-03-16T01:20:49;12.40;4.70;
69224;PMS1003;56333;51.306;17.056;2023-03-16T01:22:14;9.80;4.50;
69224;PMS1003;56333;51.306;17.056;2023-03-16T01:23:39;10.30;4.30;
69224;PMS1003;56333;51.306;17.056;2023-03-16T01:25:06;8.70;4.10;
69224;PMS1003;56333;51.306;17.056;2023-03-16T01:26:32;8.00;4.00;
69224;PMS1003;56333;51.306;17.056;2023-03-16T01:27:57;14.20;4.20;
69224;PMS1003;56333;51.306;17.056;2023-03-16T01:29:22;9.80;4.00;
69224;PMS1003;56333;51.306;17.056;2023-03-16T01:30:48;9.30;3.50;
69224;PMS1003;56333;51.306;17.056;2023-03-16T01:32:16;12.00;3.90;
69224;PMS1003;56333;51.306;17.056;2023-03-16T01:33:42;8.60;3.80;
69224;PMS1003;56333;51.306;17.056;2023-03-16T01:35:10;9.20;3.70;
69224;PMS1003;56333;51.306;17.056;2023-03-16T01:36:34;8.50;3.60;
69224;PMS1003;56333;51.306;17.056;2023-03-16T01:38:01;9.70;3.60;
69224;PMS1003;56333;51.306;17.056;2023-03-16T01:39:26;7.10;3.50;
69224;PMS1003;56333;51.306;17.056;2023-03-16T01:40:52;8.80;3.60;
69224;PMS1003;56333;51.306;17.056;2023-03-16T01:42:17;8.80;4.00;
69224;PMS1003;56333;51.306;17.056;2023-03-16T01:43:42;12.10;3.60;
69224;PMS1003;56333;51.306;17.056;2023-03-16T01:45:54;8.60;3.60;
69224;PMS1003;56333;51.306;17.056;2023-03-16T01:47:41;9.80;4.00;
69224;PMS1003;56333;51.306;17.056;2023-03-16T01:49:12;11.40;4.10;
69224;PMS1003;56333;51.306;17.056;2023-03-16T01:50:39;7.40;3.60;
69224;PMS1003;56333;51.306;17.056;2023-03-16T01:52:08;9.70;4.10;
69224;PMS1003;56333;51.306;17.056;2023-03-16T01:53:35;7.10;3.70;
69224;PMS1003;56333;51.306;17.056;2023-03-16T01:55:06;8.40;3.50;
69224;PMS1003;56333;51.306;17.056;2023-03-16T01:56:36;9.20;3.70;
69224;PMS1003;56333;51.306;17.056;2023-03-16T01:58:04;7.00;3.40;
69224;PMS1003;56333;51.306;17.056;2023-03-16T01:59:32;7.90;3.40;
69224;PMS1003;56333;51.306;17.056;2023-03-16T02:00:58;10.10;3.50;
69224;PMS1003;56333;51.306;17.056;2023-03-16T02:02:26;8.10;3.20;
69224;PMS1003;56333;51.306;17.056;2023-03-16T02:03:59;10.90;3.40;
69224;PMS1003;56333;51.306;17.056;2023-03-16T02:05:34;9.30;3.70;
69224;PMS1003;56333;51.306;17.056;2023-03-16T02:07:02;7.60;3.60;
69224;PMS1003;56333;51.306;17.056;2023-03-16T02:12:26;10.50;4.20;
69224;PMS1003;56333;51.306;17.056;2023-03-16T02:13:52;9.10;4.70;
69224;PMS1003;56333;51.306;17.056;2023-03-16T02:15:19;11.30;4.30;
69224;PMS1003;56333;51.306;17.056;2023-03-16T02:16:44;9.00;4.40;
69224;PMS1003;56333;51.306;17.056;2023-03-16T02:18:11;6.80;4.40;
69224;PMS1003;56333;51.306;17.056;2023-03-16T02:19:48;10.50;4.50;
69224;PMS1003;56333;51.306;17.056;2023-03-16T02:21:27;10.10;4.50;
69224;PMS1003;56333;51.306;17.056;2023-03-16T02:22:57;9.10;4.50;
69224;PMS1003;56333;51.306;17.056;2023-03-16T02:24:23;12.90;4.90;
69224;PMS1003;56333;51.306;17.056;2023-03-16T02:25:54;11.20;4.70;
69224;PMS1003;56333;51.306;17.056;2023-03-16T02:27:29;11.40;4.80;
69224;PMS1003;56333;51.306;17.056;2023-03-16T02:29:16;12.20;5.10;
69224;PMS1003;56333;51.306;17.056;2023-03-16T02:30:48;11.70;5.10;
69224;PMS1003;56333;51.306;17.056;2023-03-16T02:32:14;9.10;4.80;
69224;PMS1003;56333;51.306;17.056;2023-03-16T02:33:41;12.20;5.30;
69224;PMS1003;56333;51.306;17.056;2023-03-16T02:35:09;11.00;5.10;
69224;PMS1003;56333;51.306;17.056;2023-03-16T02:36:36;10.60;5.00;
69224;PMS1003;56333;51.306;17.056;2023-03-16T02:38:02;11.40;4.90;
69224;PMS1003;56333;51.306;17.056;2023-03-16T02:39:30;12.30;4.60;
69224;PMS1003;56333;51.306;17.056;2023-03-16T02:41:00;11.40;4.70;
69224;PMS1003;56333;51.306;17.056;2023-03-16T02:42:34;9.80;4.30;
69224;PMS1003;56333;51.306;17.056;2023-03-16T02:44:03;9.60;4.70;
69224;PMS1003;56333;51.306;17.056;2023-03-16T02:45:38;9.80;4.50;
69224;PMS1003;56333;51.306;17.056;2023-03-16T02:47:12;10.70;4.30;
69224;PMS1003;56333;51.306;17.056;2023-03-16T02:48:44;11.30;4.30;
69224;PMS1003;56333;51.306;17.056;2023-03-16T02:50:13;9.20;4.30;
69224;PMS1003;56333;51.306;17.056;2023-03-16T02:51:38;9.90;4.30;
69224;PMS1003;56333;51.306;17.056;2023-03-16T02:53:04;8.40;4.10;
69224;PMS1003;56333;51.306;17.056;2023-03-16T02:54:32;9.40;4.50;
69224;PMS1003;56333;51.306;17.056;2023-03-16T02:55:57;10.70;4.80;
69224;PMS1003;56333;51.306;17.056;2023-03-16T02:57:22;10.50;4.00;
69224;PMS1003;56333;51.306;17.056;2023-03-16T02:58:47;9.80;4.90;
69224;PMS1003;56333;51.306;17.056;2023-03-16T03:00:15;11.10;4.50;
69224;PMS1003;56333;51.306;17.056;2023-03-16T03:01:43;12.20;4.70;
69224;PMS1003;56333;51.306;17.056;2023-03-16T03:03:09;10.30;4.90;
69224;PMS1003;56333;51.306;17.056;2023-03-16T03:04:34;9.90;5.00;
69224;PMS1003;56333;51.306;17.056;2023-03-16T03:05:58;11.80;4.80;
69224;PMS1003;56333;51.306;17.056;2023-03-16T03:07:24;9.70;4.70;
69224;PMS1003;56333;51.306;17.056;2023-03-16T03:08:57;9.20;4.60;
69224;PMS1003;56333;51.306;17.056;2023-03-16T03:10:23;11.70;4.30;
69224;PMS1003;56333;51.306;17.056;2023-03-16T03:11:47;11.30;4.60;
69224;PMS1003;56333;51.306;17.056;2023-03-16T03:13:12;9.30;4.30;
69224;PMS1003;56333;51.306;17.056;2023-03-16T03:14:37;10.60;4.20;
69224;PMS1003;56333;51.306;17.056;2023-03-16T03:16:03;9.80;4.30;
69224;PMS1003;56333;51.306;17.056;2023-03-16T03:17:28;10.40;4.00;
69224;PMS1003;56333;51.306;17.056;2023-03-16T03:18:54;9.00;3.80;
69224;PMS1003;56333;51.306;17.056;2023-03-16T03:20:19;12.40;4.40;
69224;PMS1003;56333;51.306;17.056;2023-03-16T03:21:44;10.20;4.10;
69224;PMS1003;56333;51.306;17.056;2023-03-16T03:23:09;9.50;4.50;
69224;PMS1003;56333;51.306;17.056;2023-03-16T03:24:34;7.60;4.30;
69224;PMS1003;56333;51.306;17.056;2023-03-16T03:25:59;8.60;4.30;
69224;PMS1003;56333;51.306;17.056;2023-03-16T03:27:24;13.20;4.60;
69224;PMS1003;56333;51.306;17.056;2023-03-16T03:28:49;10.00;4.50;
69224;PMS1003;56333;51.306;17.056;2023-03-16T03:30:18;8.60;4.40;
69224;PMS1003;56333;51.306;17.056;2023-03-16T03:31:44;10.80;4.40;
69224;PMS1003;56333;51.306;17.056;2023-03-16T03:33:10;10.40;4.40;
69224;PMS1003;56333;51.306;17.056;2023-03-16T03:34:35;11.50;3.90;
69224;PMS1003;56333;51.306;17.056;2023-03-16T03:36:01;9.10;4.00;
69224;PMS1003;56333;51.306;17.056;2023-03-16T03:37:30;9.70;4.50;
69224;PMS1003;56333;51.306;17.056;2023-03-16T03:38:54;11.70;5.40;
69224;PMS1003;56333;51.306;17.056;2023-03-16T03:40:20;12.40;6.00;
69224;PMS1003;56333;51.306;17.056;2023-03-16T03:41:48;12.30;6.00;
69224;PMS1003;56333;51.306;17.056;2023-03-16T03:43:16;14.30;5.80;
69224;PMS1003;56333;51.306;17.056;2023-03-16T03:44:42;15.20;5.80;
69224;PMS1003;56333;51.306;17.056;2023-03-16T03:46:07;10.40;5.40;
69224;PMS1003;56333;51.306;17.056;2023-03-16T03:47:31;11.50;5.00;
69224;PMS1003;56333;51.306;17.056;2023-03-16T03:48:57;13.70;5.30;
69224;PMS1003;56333;51.306;17.056;2023-03-16T03:50:27;7.90;3.80;
69224;PMS1003;56333;51.306;17.056;2023-03-16T03:52:32;11.90;4.30;
69224;PMS1003;56333;51.306;17.056;2023-03-16T03:53:58;13.80;4.20;
69224;PMS1003;56333;51.306;17.056;2023-03-16T03:56:03;9.50;4.60;
69224;PMS1003;56333;51.306;17.056;2023-03-16T03:57:28;10.00;4.50;
69224;PMS1003;56333;51.306;17.056;2023-03-16T03:58:52;16.60;4.80;
69224;PMS1003;56333;51.306;17.056;2023-03-16T04:00:31;9.90;4.10;
69224;PMS1003;56333;51.306;17.056;2023-03-16T04:01:56;10.80;5.00;
69224;PMS1003;56333;51.306;17.056;2023-03-16T04:03:23;10.70;5.10;
69224;PMS1003;56333;51.306;17.056;2023-03-16T04:04:47;10.20;4.80;
69224;PMS1003;56333;51.306;17.056;2023-03-16T04:06:12;9.00;4.60;
69224;PMS1003;56333;51.306;17.056;2023-03-16T04:07:37;9.70;4.80;
69224;PMS1003;56333;51.306;17.056;2023-03-16T04:09:04;11.10;4.80;
69224;PMS1003;56333;51.306;17.056;2023-03-16T04:10:29;9.90;4.60;
69224;PMS1003;56333;51.306;17.056;2023-03-16T04:11:54;10.80;4.80;
69224;PMS1003;56333;51.306;17.056;2023-03-16T04:13:20;9.20;4.70;
69224;PMS1003;56333;51.306;17.056;2023-03-16T04:14:45;10.40;4.60;
69224;PMS1003;56333;51.306;17.056;2023-03-16T04:16:10;10.70;4.90;
69224;PMS1003;56333;51.306;17.056;2023-03-16T04:17:39;11.40;4.40;
69224;PMS1003;56333;51.306;17.056;2023-03-16T04:19:05;11.10;4.50;
69224;PMS1003;56333;51.306;17.056;2023-03-16T04:20:29;14.70;4.00;
69224;PMS1003;56333;51.306;17.056;2023-03-16T04:21:54;8.50;3.60;
69224;PMS1003;56333;51.306;17.056;2023-03-16T04:23:20;4.10;2.60;
69224;PMS1003;56333;51.306;17.056;2023-03-16T04:24:47;9.40;3.60;
69224;PMS1003;56333;51.306;17.056;2023-03-16T04:26:14;8.60;3.10;
69224;PMS1003;56333;51.306;17.056;2023-03-16T04:27:40;9.10;3.60;
69224;PMS1003;56333;51.306;17.056;2023-03-16T04:29:05;8.90;3.50;
69224;PMS1003;56333;51.306;17.056;2023-03-16T04:30:31;9.00;3.30;
69224;PMS1003;56333;51.306;17.056;2023-03-16T04:32:34;9.60;3.90;
69224;PMS1003;56333;51.306;17.056;2023-03-16T04:33:59;9.20;3.40;
69224;PMS1003;56333;51.306;17.056;2023-03-16T04:36:50;8.60;3.70;
69224;PMS1003;56333;51.306;17.056;2023-03-16T04:38:15;9.90;3.70;
69224;PMS1003;56333;51.306;17.056;2023-03-16T04:39:47;8.50;3.90;
69224;PMS1003;56333;51.306;17.056;2023-03-16T04:41:11;8.30;4.30;
69224;PMS1003;56333;51.306;17.056;2023-03-16T04:42:42;10.80;4.20;
69224;PMS1003;56333;51.306;17.056;2023-03-16T04:44:08;10.80;4.80;
69224;PMS1003;56333;51.306;17.056;2023-03-16T04:45:33;10.00;4.70;
69224;PMS1003;56333;51.306;17.056;2023-03-16T04:46:58;11.50;4.80;
69224;PMS1003;56333;51.306;17.056;2023-03-16T04:48:25;12.80;4.60;
69224;PMS1003;56333;51.306;17.056;2023-03-16T04:49:49;10.10;4.60;
69224;PMS1003;56333;51.306;17.056;2023-03-16T04:51:13;11.90;5.20;
69224;PMS1003;56333;51.306;17.056;2023-03-16T04:52:43;9.50;5.00;
69224;PMS1003;56333;51.306;17.056;2023-03-16T04:54:09;12.00;5.60;
69224;PMS1003;56333;51.306;17.056;2023-03-16T04:55:36;11.70;5.70;
69224;PMS1003;56333;51.306;17.056;2023-03-16T04:57:00;8.80;5.10;
69224;PMS1003;56333;51.306;17.056;2023-03-16T04:58:29;15.70;5.50;
69224;PMS1003;56333;51.306;17.056;2023-03-16T04:59:54;9.70;5.00;
69224;PMS1003;56333;51.306;17.056;2023-03-16T05:01:24;11.00;5.50;
69224;PMS1003;56333;51.306;17.056;2023-03-16T05:02:51;14.10;5.70;
69224;PMS1003;56333;51.306;17.056;2023-03-16T05:04:15;10.40;4.90;
69224;PMS1003;56333;51.306;17.056;2023-03-16T05:05:40;10.90;5.90;
69224;PMS1003;56333;51.306;17.056;2023-03-16T05:07:05;13.30;5.50;
69224;PMS1003;56333;51.306;17.056;2023-03-16T05:08:32;10.30;5.50;
69224;PMS1003;56333;51.306;17.056;2023-03-16T05:09:57;12.30;5.70;
69224;PMS1003;56333;51.306;17.056;2023-03-16T05:11:21;9.30;5.30;
69224;PMS1003;56333;51.306;17.056;2023-03-16T05:12:52;11.10;5.30;
69224;PMS1003;56333;51.306;17.056;2023-03-16T05:14:17;11.20;5.60;
69224;PMS1003;56333;51.306;17.056;2023-03-16T05:15:52;13.80;6.00;
69224;PMS1003;56333;51.306;17.056;2023-03-16T05:17:29;13.90;5.90;
69224;PMS1003;56333;51.306;17.056;2023-03-16T05:18:56;16.70;7.90;
69224;PMS1003;56333;51.306;17.056;2023-03-16T05:20:22;13.90;6.50;
69224;PMS1003;56333;51.306;17.056;2023-03-16T05:21:50;10.90;5.90;
69224;PMS1003;56333;51.306;17.056;2023-03-16T05:23:15;13.60;6.30;
69224;PMS1003;56333;51.306;17.056;2023-03-16T05:24:42;12.40;6.60;
69224;PMS1003;56333;51.306;17.056;2023-03-16T05:26:07;13.40;6.30;
69224;PMS1003;56333;51.306;17.056;2023-03-16T05:27:33;10.90;5.80;
69224;PMS1003;56333;51.306;17.056;2023-03-16T05:28:58;12.90;6.40;
69224;PMS1003;56333;51.306;17.056;2023-03-16T05:30:25;13.60;5.90;
69224;PMS1003;56333;51.306;17.056;2023-03-16T05:31:49;12.60;5.30;
69224;PMS1003;56333;51.306;17.056;2023-03-16T05:33:16;11.40;5.60;
69224;PMS1003;56333;51.306;17.056;2023-03-16T05:34:43;10.50;5.40;
69224;PMS1003;56333;51.306;17.056;2023-03-16T05:36:09;10.40;4.70;
69224;PMS1003;56333;51.306;17.056;2023-03-16T05:37:35;12.30;4.90;
69224;PMS1003;56333;51.306;17.056;2023-03-16T05:39:01;13.20;5.00;
69224;PMS1003;56333;51.306;17.056;2023-03-16T05:40:29;12.40;5.10;
69224;PMS1003;56333;51.306;17.056;2023-03-16T05:42:02;10.20;4.30;
69224;PMS1003;56333;51.306;17.056;2023-03-16T05:43:43;11.00;4.90;
69224;PMS1003;56333;51.306;17.056;2023-03-16T05:45:11;9.10;4.50;
69224;PMS1003;56333;51.306;17.056;2023-03-16T05:46:45;10.40;4.50;
69224;PMS1003;56333;51.306;17.056;2023-03-16T05:48:09;12.70;4.70;
69224;PMS1003;56333;51.306;17.056;2023-03-16T05:49:39;7.70;3.80;
69224;PMS1003;56333;51.306;17.056;2023-03-16T05:51:07;8.90;4.20;
69224;PMS1003;56333;51.306;17.056;2023-03-16T05:52:33;10.30;4.40;
69224;PMS1003;56333;51.306;17.056;2023-03-16T05:54:03;9.70;4.50;
69224;PMS1003;56333;51.306;17.056;2023-03-16T05:55:32;11.40;4.00;
69224;PMS1003;56333;51.306;17.056;2023-03-16T05:56:56;10.10;3.90;
69224;PMS1003;56333;51.306;17.056;2023-03-16T05:58:21;10.70;3.80;
69224;PMS1003;56333;51.306;17.056;2023-03-16T05:59:47;12.30;3.90;
69224;PMS1003;56333;51.306;17.056;2023-03-16T06:01:12;10.00;4.40;
69224;PMS1003;56333;51.306;17.056;2023-03-16T06:02:38;10.60;4.50;
69224;PMS1003;56333;51.306;17.056;2023-03-16T06:04:03;11.70;5.10;
69224;PMS1003;56333;51.306;17.056;2023-03-16T06:05:32;13.30;5.00;
69224;PMS1003;56333;51.306;17.056;2023-03-16T06:06:58;13.90;5.70;
69224;PMS1003;56333;51.306;17.056;2023-03-16T06:08:24;10.50;5.50;
69224;PMS1003;56333;51.306;17.056;2023-03-16T06:09:50;12.60;5.30;
69224;PMS1003;56333;51.306;17.056;2023-03-16T06:11:15;10.70;5.30;
69224;PMS1003;56333;51.306;17.056;2023-03-16T06:12:41;12.00;6.20;
69224;PMS1003;56333;51.306;17.056;2023-03-16T06:14:07;14.70;6.10;
69224;PMS1003;56333;51.306;17.056;2023-03-16T06:15:32;11.40;5.50;
69224;PMS1003;56333;51.306;17.056;2023-03-16T06:16:58;14.50;6.20;
69224;PMS1003;56333;51.306;17.056;2023-03-16T06:18:23;14.30;6.10;
69224;PMS1003;56333;51.306;17.056;2023-03-16T06:19:47;13.30;6.30;
69224;PMS1003;56333;51.306;17.056;2023-03-16T06:21:13;13.70;6.60;
69224;PMS1003;56333;51.306;17.056;2023-03-16T06:22:39;12.60;5.40;
69224;PMS1003;56333;51.306;17.056;2023-03-16T06:24:05;11.00;5.60;
69224;PMS1003;56333;51.306;17.056;2023-03-16T06:25:31;12.90;5.00;
69224;PMS1003;56333;51.306;17.056;2023-03-16T06:26:56;11.80;5.30;
69224;PMS1003;56333;51.306;17.056;2023-03-16T06:28:26;13.40;5.60;
69224;PMS1003;56333;51.306;17.056;2023-03-16T06:29:50;12.40;5.30;
69224;PMS1003;56333;51.306;17.056;2023-03-16T06:31:15;14.10;5.70;
69224;PMS1003;56333;51.306;17.056;2023-03-16T06:32:41;26.50;6.10;
69224;PMS1003;56333;51.306;17.056;2023-03-16T06:34:08;12.80;5.20;
69224;PMS1003;56333;51.306;17.056;2023-03-16T06:35:33;11.30;5.00;
69224;PMS1003;56333;51.306;17.056;2023-03-16T06:37:08;8.30;4.40;
69224;PMS1003;56333;51.306;17.056;2023-03-16T06:38:33;11.10;4.70;
69224;PMS1003;56333;51.306;17.056;2023-03-16T06:40:01;9.00;4.30;
69224;PMS1003;56333;51.306;17.056;2023-03-16T06:41:26;9.20;4.50;
69224;PMS1003;56333;51.306;17.056;2023-03-16T06:42:51;11.20;4.90;
69224;PMS1003;56333;51.306;17.056;2023-03-16T06:44:17;9.00;4.40;
69224;PMS1003;56333;51.306;17.056;2023-03-16T06:45:50;11.20;4.60;
69224;PMS1003;56333;51.306;17.056;2023-03-16T06:47:15;12.80;4.80;
69224;PMS1003;56333;51.306;17.056;2023-03-16T06:48:40;14.30;4.70;
69224;PMS1003;56333;51.306;17.056;2023-03-16T06:50:07;9.60;4.30;
69224;PMS1003;56333;51.306;17.056;2023-03-16T06:51:33;12.00;4.90;
69224;PMS1003;56333;51.306;17.056;2023-03-16T06:52:58;10.80;4.60;
69224;PMS1003;56333;51.306;17.056;2023-03-16T06:54:26;10.80;4.70;
69224;PMS1003;56333;51.306;17.056;2023-03-16T06:55:50;9.60;4.90;
69224;PMS1003;56333;51.306;17.056;2023-03-16T06:57:15;10.60;5.00;
69224;PMS1003;56333;51.306;17.056;2023-03-16T06:58:40;13.50;6.00;
69224;PMS1003;56333;51.306;17.056;2023-03-16T07:00:07;10.30;5.20;
69224;PMS1003;56333;51.306;17.056;2023-03-16T07:01:33;11.60;4.80;
69224;PMS1003;56333;51.306;17.056;2023-03-16T07:02:59;12.30;6.20;
69224;PMS1003;56333;51.306;17.056;2023-03-16T07:04:25;13.20;5.90;
69224;PMS1003;56333;51.306;17.056;2023-03-16T07:05:51;16.70;5.70;
69224;PMS1003;56333;51.306;17.056;2023-03-16T07:07:16;12.60;5.70;
69224;PMS1003;56333;51.306;17.056;2023-03-16T07:08:43;12.10;5.40;
69224;PMS1003;56333;51.306;17.056;2023-03-16T07:10:13;11.60;5.10;
69224;PMS1003;56333;51.306;17.056;2023-03-16T07:11:41;14.60;5.50;
69224;PMS1003;56333;51.306;17.056;2023-03-16T07:13:07;9.00;4.40;
69224;PMS1003;56333;51.306;17.056;2023-03-16T07:14:31;9.80;4.20;
69224;PMS1003;56333;51.306;17.056;2023-03-16T07:15:58;13.50;4.30;
69224;PMS1003;56333;51.306;17.056;2023-03-16T07:17:23;11.10;4.00;
69224;PMS1003;56333;51.306;17.056;2023-03-16T07:18:51;12.70;4.10;
69224;PMS1003;56333;51.306;17.056;2023-03-16T07:20:17;8.90;3.80;
69224;PMS1003;56333;51.306;17.056;2023-03-16T07:21:45;8.90;3.90;
69224;PMS1003;56333;51.306;17.056;2023-03-16T07:23:16;7.80;3.50;
69224;PMS1003;56333;51.306;17.056;2023-03-16T07:24:43;9.60;3.50;
69224;PMS1003;56333;51.306;17.056;2023-03-16T07:26:12;12.40;3.90;
69224;PMS1003;56333;51.306;17.056;2023-03-16T07:27:45;9.70;4.30;
69224;PMS1003;56333;51.306;17.056;2023-03-16T07:29:14;11.30;4.40;
69224;PMS1003;56333;51.306;17.056;2023-03-16T07:30:40;10.50;4.40;
69224;PMS1003;56333;51.306;17.056;2023-03-16T07:32:07;10.70;4.60;
69224;PMS1003;56333;51.306;17.056;2023-03-16T07:33:37;9.60;4.50;
69224;PMS1003;56333;51.306;17.056;2023-03-16T07:35:07;10.30;4.20;
69224;PMS1003;56333;51.306;17.056;2023-03-16T07:36:34;8.30;4.10;
69224;PMS1003;56333;51.306;17.056;2023-03-16T07:38:00;10.00;4.50;
69224;PMS1003;56333;51.306;17.056;2023-03-16T07:39:26;11.60;4.30;
69224;PMS1003;56333;51.306;17.056;2023-03-16T07:40:57;9.90;4.20;
69224;PMS1003;56333;51.306;17.056;2023-03-16T07:42:25;11.80;3.90;
69224;PMS1003;56333;51.306;17.056;2023-03-16T07:44:02;10.10;3.90;
69224;PMS1003;56333;51.306;17.056;2023-03-16T07:45:27;10.50;4.00;
69224;PMS1003;56333;51.306;17.056;2023-03-16T07:46:56;12.60;4.00;
69224;PMS1003;56333;51.306;17.056;2023-03-16T07:48:22;11.60;3.80;
69224;PMS1003;56333;51.306;17.056;2023-03-16T07:49:53;8.70;4.00;
69224;PMS1003;56333;51.306;17.056;2023-03-16T07:51:18;10.90;3.90;
69224;PMS1003;56333;51.306;17.056;2023-03-16T07:52:48;13.10;4.10;
69224;PMS1003;56333;51.306;17.056;2023-03-16T07:54:20;11.00;4.50;
69224;PMS1003;56333;51.306;17.056;2023-03-16T07:55:50;9.20;3.70;
69224;PMS1003;56333;51.306;17.056;2023-03-16T07:57:22;10.20;4.20;
69224;PMS1003;56333;51.306;17.056;2023-03-16T07:58:51;11.20;4.20;
69224;PMS1003;56333;51.306;17.056;2023-03-16T08:00:25;13.30;4.80;
69224;PMS1003;56333;51.306;17.056;2023-03-16T08:02:15;9.70;4.40;
69224;PMS1003;56333;51.306;17.056;2023-03-16T08:03:41;9.80;3.80;
69224;PMS1003;56333;51.306;17.056;2023-03-16T08:05:15;14.60;4.30;
69224;PMS1003;56333;51.306;17.056;2023-03-16T08:06:57;9.10;3.40;
69224;PMS1003;56333;51.306;17.056;2023-03-16T08:08:28;10.90;3.70;
69224;PMS1003;56333;51.306;17.056;2023-03-16T08:10:11;10.20;3.80;
69224;PMS1003;56333;51.306;17.056;2023-03-16T08:11:43;12.70;4.20;
69224;PMS1003;56333;51.306;17.056;2023-03-16T08:13:12;10.30;3.70;
69224;PMS1003;56333;51.306;17.056;2023-03-16T08:14:42;12.60;3.30;
69224;PMS1003;56333;51.306;17.056;2023-03-16T08:16:22;11.80;3.20;
69224;PMS1003;56333;51.306;17.056;2023-03-16T08:17:53;9.20;3.30;
69224;PMS1003;56333;51.306;17.056;2023-03-16T08:19:41;11.10;3.50;
69224;PMS1003;56333;51.306;17.056;2023-03-16T08:21:13;7.40;2.90;
69224;PMS1003;56333;51.306;17.056;2023-03-16T08:22:42;11.80;3.00;
69224;PMS1003;56333;51.306;17.056;2023-03-16T08:24:11;9.00;3.00;
69224;PMS1003;56333;51.306;17.056;2023-03-16T08:25:36;8.60;2.60;
69224;PMS1003;56333;51.306;17.056;2023-03-16T08:27:07;8.30;2.60;
69224;PMS1003;56333;51.306;17.056;2023-03-16T08:28:34;11.10;2.50;
69224;PMS1003;56333;51.306;17.056;2023-03-16T08:30:10;7.60;2.40;
69224;PMS1003;56333;51.306;17.056;2023-03-16T08:31:39;7.30;2.30;
69224;PMS1003;56333;51.306;17.056;2023-03-16T08:33:30;8.30;2.40;
69224;PMS1003;56333;51.306;17.056;2023-03-16T08:35:05;8.00;2.10;
69224;PMS1003;56333;51.306;17.056;2023-03-16T08:36:33;10.10;2.70;
69224;PMS1003;56333;51.306;17.056;2023-03-16T08:38:01;8.10;2.60;
69224;PMS1003;56333;51.306;17.056;2023-03-16T08:39:26;9.50;2.20;
69224;PMS1003;56333;51.306;17.056;2023-03-16T08:40:54;6.50;2.80;
69224;PMS1003;56333;51.306;17.056;2023-03-16T08:42:21;9.70;3.40;
69224;PMS1003;56333;51.306;17.056;2023-03-16T08:43:53;14.00;3.60;
69224;PMS1003;56333;51.306;17.056;2023-03-16T08:45:20;11.40;3.70;
69224;PMS1003;56333;51.306;17.056;2023-03-16T08:46:48;11.80;2.80;
69224;PMS1003;56333;51.306;17.056;2023-03-16T08:48:14;7.90;2.50;
69224;PMS1003;56333;51.306;17.056;2023-03-16T08:49:40;6.20;2.10;
69224;PMS1003;56333;51.306;17.056;2023-03-16T08:51:10;9.20;2.10;
69224;PMS1003;56333;51.306;17.056;2023-03-16T08:52:35;7.50;2.30;
69224;PMS1003;56333;51.306;17.056;2023-03-16T08:54:00;9.00;2.50;
69224;PMS1003;56333;51.306;17.056;2023-03-16T08:55:28;8.30;2.20;
69224;PMS1003;56333;51.306;17.056;2023-03-16T08:56:53;9.80;3.00;
69224;PMS1003;56333;51.306;17.056;2023-03-16T08:58:18;7.70;2.20;